Kezdőlap
METAR-TAF:

METAR-TAF

Repülőterek :

Mersing, Malajzia

földrajzi szélesség: 02-23-00N, földrajzi hosszúság: 103-51-34E, magasság: 3 m

Jelenlegi meteorológiai megfigyelések

A jelentés 1 órával és 20 perccel ezelõtt készült, 14:00 UTC
Délnyugati szél 6 kt
Hőmérséklet 25°C
Páratartalom 94%
Légköri nyomás 1009 hPa
Látótávolság: 8000 m
Kevés felhő 300 lábon

METAR: WMAU 231400Z 23006KT 8000 FEW003 25/24 Q1009

Idő: 23:20 (15:20 UTC)


TAF: hiányzik

Meteorológiai megfigyelések és előrejelzések több, mint 4000 repülőtéren (METAR és TAF jelentéseket).

A térképen piros és sárga pontok jelzik az elérhető meteorológiai állomásokat.

Mozgassa az egeret a pont fölött, hogy megjelenjen az állomás neve.

Azután kattintson az időjárási megfigyelések és előrejelzések megtekintéséhez.

A térkép megváltoztatása: kattintson a fekete keresztel jelölt zöld gombra ráközelítéshez, a vonallal jelölt zöld gombra távolításhoz, vagy a zöld nyilakra a szomszédos térképek eléréséhez.


METAR-TAF: